Crane, Texas
Current Conditions -  °F | °C
As of 10:53 PM on Thursday 30 Oct 2014 (Local Time) from KODO Reporting Station
Clear Clear  
Wind Chill: 66°   Ceiling: Unl
Heat Index: 66°   Visibility: 10mi
Dew Point: 53°   Wind: 14mph
Humidity: 63%   Direction: 60°ENE
Pressure: 30.24"   Gusts: NA
Location:  31.4°N, 102.35°W
Report Text: KODO 310353Z AUTO 06012KT 10SM CLR 19/12 A3024 RMK AO2 SLP206 T01890117
Loading
Personal Weather Stations






























Interactive Weather Map
Tropical Storm Tracking
New forecast layout! Learn more

10-Day Weather Forecast

Advertisements
Track Severe Weather on mobile